Terminal Aerodrome Forecast
Issued by NWS

Home | Current Version | Previous Version | Text Only | Print | Product List | Glossary On
Versions: 1 2 3 4 5 6 7 8 9 10 11 12 13 14 15 16
000
FTUS45 KGJT 202338
TAFASE
TAF
KASE 202338Z 2100/2124 21005KT P6SM SCT150
     FM210500 19007KT P6SM BKN090
     FM211000 19007KT P6SM BKN060
     FM212300 19007KT P6SM BKN100=

USA.gov is the U.S. government's official web portal to all federal, state and local government web resources and services.